sensor_id;sensor_type;location;lat;lon;timestamp;pressure;altitude;pressure_sealevel;temperature;humidity
71805;BME280;59654;52.216;5.616;2023-02-13T00:00:28;103593.91;;;5.79;84.22
71805;BME280;59654;52.216;5.616;2023-02-13T00:00:59;103586.84;;;5.78;84.02
71805;BME280;59654;52.216;5.616;2023-02-13T00:01:30;103588.56;;;5.76;83.97
71805;BME280;59654;52.216;5.616;2023-02-13T00:02:01;103591.22;;;5.76;83.99
71805;BME280;59654;52.216;5.616;2023-02-13T00:02:32;103590.28;;;5.74;83.97
71805;BME280;59654;52.216;5.616;2023-02-13T00:03:03;103582.34;;;5.74;84.13
71805;BME280;59654;52.216;5.616;2023-02-13T00:03:34;103585.88;;;5.74;84.01
71805;BME280;59654;52.216;5.616;2023-02-13T00:04:05;103585.88;;;5.74;84.07
71805;BME280;59654;52.216;5.616;2023-02-13T00:04:36;103585.00;;;5.74;84.16
71805;BME280;59654;52.216;5.616;2023-02-13T00:05:07;103582.41;;;5.77;84.18
71805;BME280;59654;52.216;5.616;2023-02-13T00:05:38;103582.38;;;5.75;83.49
71805;BME280;59654;52.216;5.616;2023-02-13T00:06:08;103579.75;;;5.77;84.11
71805;BME280;59654;52.216;5.616;2023-02-13T00:06:40;103583.28;;;5.76;84.02
71805;BME280;59654;52.216;5.616;2023-02-13T00:07:11;103583.28;;;5.77;84.26
71805;BME280;59654;52.216;5.616;2023-02-13T00:07:42;103580.63;;;5.77;84.10
71805;BME280;59654;52.216;5.616;2023-02-13T00:08:13;103595.66;;;5.78;84.45
71805;BME280;59654;52.216;5.616;2023-02-13T00:08:43;103582.44;;;5.78;84.57
71805;BME280;59654;52.216;5.616;2023-02-13T00:09:14;103580.63;;;5.77;84.98
71805;BME280;59654;52.216;5.616;2023-02-13T00:09:45;103585.94;;;5.77;84.98
71805;BME280;59654;52.216;5.616;2023-02-13T00:10:16;103582.41;;;5.77;84.88
71805;BME280;59654;52.216;5.616;2023-02-13T00:10:48;103579.69;;;5.74;84.92
71805;BME280;59654;52.216;5.616;2023-02-13T00:11:19;103580.53;;;5.73;84.70
71805;BME280;59654;52.216;5.616;2023-02-13T00:11:50;103586.69;;;5.72;85.30
71805;BME280;59654;52.216;5.616;2023-02-13T00:12:20;103579.66;;;5.72;85.29
71805;BME280;59654;52.216;5.616;2023-02-13T00:12:51;103580.50;;;5.71;85.59
71805;BME280;59654;52.216;5.616;2023-02-13T00:13:22;103581.34;;;5.70;84.94
71805;BME280;59654;52.216;5.616;2023-02-13T00:13:53;103580.47;;;5.70;85.02
71805;BME280;59654;52.216;5.616;2023-02-13T00:14:24;103577.78;;;5.68;85.43
71805;BME280;59654;52.216;5.616;2023-02-13T00:14:54;103579.59;;;5.71;84.99
71805;BME280;59654;52.216;5.616;2023-02-13T00:15:25;103584.00;;;5.70;85.10
71805;BME280;59654;52.216;5.616;2023-02-13T00:15:59;103576.06;;;5.70;85.17
71805;BME280;59654;52.216;5.616;2023-02-13T00:16:32;103576.06;;;5.70;85.24
71805;BME280;59654;52.216;5.616;2023-02-13T00:17:03;103576.97;;;5.71;85.03
71805;BME280;59654;52.216;5.616;2023-02-13T00:17:35;103571.75;;;5.74;85.10
71805;BME280;59654;52.216;5.616;2023-02-13T00:18:06;103572.59;;;5.73;84.65
71805;BME280;59654;52.216;5.616;2023-02-13T00:18:38;103572.66;;;5.74;84.36
71805;BME280;59654;52.216;5.616;2023-02-13T00:19:09;103573.50;;;5.73;84.45
71805;BME280;59654;52.216;5.616;2023-02-13T00:19:40;103568.16;;;5.72;84.37
71805;BME280;59654;52.216;5.616;2023-02-13T00:20:11;103578.75;;;5.72;84.71
71805;BME280;59654;52.216;5.616;2023-02-13T00:20:42;103577.06;;;5.74;84.31
71805;BME280;59654;52.216;5.616;2023-02-13T00:21:14;103567.31;;;5.73;84.37
71805;BME280;59654;52.216;5.616;2023-02-13T00:21:45;103571.75;;;5.74;84.05
71805;BME280;59654;52.216;5.616;2023-02-13T00:22:16;103569.16;;;5.75;84.10
71805;BME280;59654;52.216;5.616;2023-02-13T00:22:46;103574.44;;;5.75;84.00
71805;BME280;59654;52.216;5.616;2023-02-13T00:23:17;103571.81;;;5.77;83.64
71805;BME280;59654;52.216;5.616;2023-02-13T00:23:48;103567.41;;;5.77;83.95
71805;BME280;59654;52.216;5.616;2023-02-13T00:24:19;103574.50;;;5.78;83.89
71805;BME280;59654;52.216;5.616;2023-02-13T00:24:49;103573.63;;;5.80;84.07
71805;BME280;59654;52.216;5.616;2023-02-13T00:25:20;103568.34;;;5.80;84.51
71805;BME280;59654;52.216;5.616;2023-02-13T00:25:51;103566.59;;;5.80;84.09
71805;BME280;59654;52.216;5.616;2023-02-13T00:26:22;103567.50;;;5.81;84.45
71805;BME280;59654;52.216;5.616;2023-02-13T00:26:53;103571.03;;;5.81;84.10
71805;BME280;59654;52.216;5.616;2023-02-13T00:27:24;103575.47;;;5.82;84.20
71805;BME280;59654;52.216;5.616;2023-02-13T00:27:55;103571.06;;;5.83;84.07
71805;BME280;59654;52.216;5.616;2023-02-13T00:28:26;103570.22;;;5.84;83.97
71805;BME280;59654;52.216;5.616;2023-02-13T00:28:57;103566.69;;;5.83;83.93
71805;BME280;59654;52.216;5.616;2023-02-13T00:29:28;103566.72;;;5.85;84.05
71805;BME280;59654;52.216;5.616;2023-02-13T00:29:59;103570.22;;;5.84;83.91
71805;BME280;59654;52.216;5.616;2023-02-13T00:30:30;103574.66;;;5.85;84.13
71805;BME280;59654;52.216;5.616;2023-02-13T00:31:08;103572.88;;;5.84;83.93
71805;BME280;59654;52.216;5.616;2023-02-13T00:31:41;103568.47;;;5.84;83.93
71805;BME280;59654;52.216;5.616;2023-02-13T00:32:11;103575.50;;;5.84;84.17
71805;BME280;59654;52.216;5.616;2023-02-13T00:32:42;103574.66;;;5.85;84.03
71805;BME280;59654;52.216;5.616;2023-02-13T00:33:13;103571.16;;;5.86;83.50
71805;BME280;59654;52.216;5.616;2023-02-13T00:33:44;103568.47;;;5.84;83.18
71805;BME280;59654;52.216;5.616;2023-02-13T00:34:15;103567.63;;;5.85;83.46
71805;BME280;59654;52.216;5.616;2023-02-13T00:34:46;103571.13;;;5.84;83.26
71805;BME280;59654;52.216;5.616;2023-02-13T00:35:17;103565.81;;;5.84;82.83
71805;BME280;59654;52.216;5.616;2023-02-13T00:35:48;103561.34;;;5.82;82.77
71805;BME280;59654;52.216;5.616;2023-02-13T00:36:21;103563.09;;;5.81;82.67
71805;BME280;59654;52.216;5.616;2023-02-13T00:36:53;103564.00;;;5.82;83.28
71805;BME280;59654;52.216;5.616;2023-02-13T00:37:25;103562.25;;;5.82;83.24
71805;BME280;59654;52.216;5.616;2023-02-13T00:37:56;103564.03;;;5.83;83.39
71805;BME280;59654;52.216;5.616;2023-02-13T00:38:30;103564.06;;;5.85;83.73
71805;BME280;59654;52.216;5.616;2023-02-13T00:39:02;103564.97;;;5.85;82.96
71805;BME280;59654;52.216;5.616;2023-02-13T00:39:32;103566.72;;;5.85;82.90
71805;BME280;59654;52.216;5.616;2023-02-13T00:40:03;103562.41;;;5.88;82.82
71805;BME280;59654;52.216;5.616;2023-02-13T00:40:35;103565.81;;;5.84;83.12
71805;BME280;59654;52.216;5.616;2023-02-13T00:41:06;103560.59;;;5.87;82.97
71805;BME280;59654;52.216;5.616;2023-02-13T00:41:38;103563.34;;;5.90;82.93
71805;BME280;59654;52.216;5.616;2023-02-13T00:42:09;103563.34;;;5.90;82.59
71805;BME280;59654;52.216;5.616;2023-02-13T00:42:40;103565.91;;;5.87;82.81
71805;BME280;59654;52.216;5.616;2023-02-13T00:43:10;103557.97;;;5.87;83.17
71805;BME280;59654;52.216;5.616;2023-02-13T00:43:42;103557.91;;;5.86;82.81
71805;BME280;59654;52.216;5.616;2023-02-13T00:44:14;103565.81;;;5.84;83.24
71805;BME280;59654;52.216;5.616;2023-02-13T00:44:45;103562.31;;;5.85;83.00
71805;BME280;59654;52.216;5.616;2023-02-13T00:45:15;103565.88;;;5.86;82.77
71805;BME280;59654;52.216;5.616;2023-02-13T00:45:46;103559.66;;;5.85;82.80
71805;BME280;59654;52.216;5.616;2023-02-13T00:46:17;103565.88;;;5.86;82.86
71805;BME280;59654;52.216;5.616;2023-02-13T00:46:49;103564.97;;;5.85;83.05
71805;BME280;59654;52.216;5.616;2023-02-13T00:47:21;103567.66;;;5.87;83.69
71805;BME280;59654;52.216;5.616;2023-02-13T00:47:51;103568.50;;;5.86;83.43
71805;BME280;59654;52.216;5.616;2023-02-13T00:48:25;103561.47;;;5.86;83.76
71805;BME280;59654;52.216;5.616;2023-02-13T00:48:56;103564.16;;;5.88;83.79
71805;BME280;59654;52.216;5.616;2023-02-13T00:49:27;103565.91;;;5.87;83.83
71805;BME280;59654;52.216;5.616;2023-02-13T00:49:58;103568.56;;;5.87;83.57
71805;BME280;59654;52.216;5.616;2023-02-13T00:50:29;103558.84;;;5.88;83.74
71805;BME280;59654;52.216;5.616;2023-02-13T00:51:02;103565.94;;;5.89;83.67
71805;BME280;59654;52.216;5.616;2023-02-13T00:51:34;103557.97;;;5.87;84.05
71805;BME280;59654;52.216;5.616;2023-02-13T00:52:04;103566.81;;;5.88;83.36
71805;BME280;59654;52.216;5.616;2023-02-13T00:52:35;103565.94;;;5.89;83.83
71805;BME280;59654;52.216;5.616;2023-02-13T00:53:06;103556.22;;;5.88;83.38
71805;BME280;59654;52.216;5.616;2023-02-13T00:53:37;103559.75;;;5.88;83.12
71805;BME280;59654;52.216;5.616;2023-02-13T00:54:09;103559.78;;;5.90;83.32
71805;BME280;59654;52.216;5.616;2023-02-13T00:54:40;103566.00;;;5.90;82.81
71805;BME280;59654;52.216;5.616;2023-02-13T00:55:11;103563.34;;;5.90;83.14
71805;BME280;59654;52.216;5.616;2023-02-13T00:55:41;103559.78;;;5.90;83.40
71805;BME280;59654;52.216;5.616;2023-02-13T00:56:13;103561.59;;;5.91;83.50
71805;BME280;59654;52.216;5.616;2023-02-13T00:56:48;103558.03;;;5.90;83.48
71805;BME280;59654;52.216;5.616;2023-02-13T00:57:19;103562.47;;;5.91;83.44
71805;BME280;59654;52.216;5.616;2023-02-13T00:57:50;103558.09;;;5.92;83.65
71805;BME280;59654;52.216;5.616;2023-02-13T00:58:21;103566.03;;;5.92;83.92
71805;BME280;59654;52.216;5.616;2023-02-13T00:58:52;103554.53;;;5.91;83.10
71805;BME280;59654;52.216;5.616;2023-02-13T00:59:23;103553.66;;;5.91;83.43
71805;BME280;59654;52.216;5.616;2023-02-13T00:59:54;103554.53;;;5.91;83.60
71805;BME280;59654;52.216;5.616;2023-02-13T01:00:25;103557.16;;;5.90;83.54
71805;BME280;59654;52.216;5.616;2023-02-13T01:00:55;103558.94;;;5.91;83.34
71805;BME280;59654;52.216;5.616;2023-02-13T01:01:26;103553.66;;;5.91;83.25
71805;BME280;59654;52.216;5.616;2023-02-13T01:01:57;103552.78;;;5.92;83.47
71805;BME280;59654;52.216;5.616;2023-02-13T01:02:28;103554.59;;;5.93;83.77
71805;BME280;59654;52.216;5.616;2023-02-13T01:02:59;103558.09;;;5.93;83.77
71805;BME280;59654;52.216;5.616;2023-02-13T01:03:30;103552.78;;;5.93;83.37
71805;BME280;59654;52.216;5.616;2023-02-13T01:04:04;103547.53;;;5.95;82.82
71805;BME280;59654;52.216;5.616;2023-02-13T01:04:34;103556.38;;;5.95;82.49
71805;BME280;59654;52.216;5.616;2023-02-13T01:05:06;103556.34;;;5.92;82.64
71805;BME280;59654;52.216;5.616;2023-02-13T01:05:37;103557.22;;;5.93;82.60
71805;BME280;59654;52.216;5.616;2023-02-13T01:06:08;103549.28;;;5.93;82.97
71805;BME280;59654;52.216;5.616;2023-02-13T01:06:38;103561.53;;;5.89;83.05
71805;BME280;59654;52.216;5.616;2023-02-13T01:07:10;103555.34;;;5.89;82.89
71805;BME280;59654;52.216;5.616;2023-02-13T01:07:40;103549.16;;;5.88;82.61
71805;BME280;59654;52.216;5.616;2023-02-13T01:08:12;103551.84;;;5.90;83.11
71805;BME280;59654;52.216;5.616;2023-02-13T01:08:44;103556.25;;;5.89;82.97
71805;BME280;59654;52.216;5.616;2023-02-13T01:09:15;103551.81;;;5.88;83.38
71805;BME280;59654;52.216;5.616;2023-02-13T01:09:45;103557.09;;;5.88;82.93
71805;BME280;59654;52.216;5.616;2023-02-13T01:10:16;103553.56;;;5.88;82.46
71805;BME280;59654;52.216;5.616;2023-02-13T01:10:48;103557.16;;;5.90;82.56
71805;BME280;59654;52.216;5.616;2023-02-13T01:11:19;103564.97;;;5.85;82.64
71805;BME280;59654;52.216;5.616;2023-02-13T01:11:49;103556.09;;;5.83;83.26
71805;BME280;59654;52.216;5.616;2023-02-13T01:12:20;103556.09;;;5.83;83.50
71805;BME280;59654;52.216;5.616;2023-02-13T01:12:51;103556.97;;;5.84;83.18
71805;BME280;59654;52.216;5.616;2023-02-13T01:13:23;103563.19;;;5.84;83.38
71805;BME280;59654;52.216;5.616;2023-02-13T01:13:54;103553.47;;;5.85;83.36
71805;BME280;59654;52.216;5.616;2023-02-13T01:14:25;103556.13;;;5.85;83.26
71805;BME280;59654;52.216;5.616;2023-02-13T01:14:55;103554.38;;;5.85;83.27
71805;BME280;59654;52.216;5.616;2023-02-13T01:15:26;103557.03;;;5.85;83.18
71805;BME280;59654;52.216;5.616;2023-02-13T01:15:58;103557.03;;;5.85;82.79
71805;BME280;59654;52.216;5.616;2023-02-13T01:16:29;103557.78;;;5.81;83.28
71805;BME280;59654;52.216;5.616;2023-02-13T01:17:00;103557.75;;;5.80;82.61
71805;BME280;59654;52.216;5.616;2023-02-13T01:17:31;103557.72;;;5.78;83.19
71805;BME280;59654;52.216;5.616;2023-02-13T01:18:02;103556.91;;;5.81;83.13
71805;BME280;59654;52.216;5.616;2023-02-13T01:18:33;103554.25;;;5.81;83.24
71805;BME280;59654;52.216;5.616;2023-02-13T01:19:04;103556.91;;;5.81;83.33
71805;BME280;59654;52.216;5.616;2023-02-13T01:19:35;103568.44;;;5.83;83.47
71805;BME280;59654;52.216;5.616;2023-02-13T01:20:08;103556.00;;;5.80;83.63
71805;BME280;59654;52.216;5.616;2023-02-13T01:20:41;103563.09;;;5.81;83.10
71805;BME280;59654;52.216;5.616;2023-02-13T01:21:18;103557.84;;;5.83;83.36
71805;BME280;59654;52.216;5.616;2023-02-13T01:21:50;103563.13;;;5.83;82.98
71805;BME280;59654;52.216;5.616;2023-02-13T01:22:22;103554.28;;;5.82;83.24
71805;BME280;59654;52.216;5.616;2023-02-13T01:22:54;103556.09;;;5.83;83.49
71805;BME280;59654;52.216;5.616;2023-02-13T01:23:31;103556.97;;;5.84;84.21
71805;BME280;59654;52.216;5.616;2023-02-13T01:24:03;103558.72;;;5.83;83.69
71805;BME280;59654;52.216;5.616;2023-02-13T01:24:35;103563.13;;;5.83;83.80
71805;BME280;59654;52.216;5.616;2023-02-13T01:25:06;103564.94;;;5.84;83.64
71805;BME280;59654;52.216;5.616;2023-02-13T01:25:43;103557.88;;;5.84;83.12
71805;BME280;59654;52.216;5.616;2023-02-13T01:26:22;103560.56;;;5.86;83.13
71805;BME280;59654;52.216;5.616;2023-02-13T01:26:54;103560.66;;;5.89;83.30
71805;BME280;59654;52.216;5.616;2023-02-13T01:27:26;103564.25;;;5.91;82.83
71805;BME280;59654;52.216;5.616;2023-02-13T01:27:57;103558.03;;;5.90;83.04
71805;BME280;59654;52.216;5.616;2023-02-13T01:28:28;103566.94;;;5.92;82.74
71805;BME280;59654;52.216;5.616;2023-02-13T01:28:59;103565.13;;;5.91;82.45
71805;BME280;59654;52.216;5.616;2023-02-13T01:29:30;103565.94;;;5.89;82.82
71805;BME280;59654;52.216;5.616;2023-02-13T01:30:01;103557.09;;;5.88;82.83
71805;BME280;59654;52.216;5.616;2023-02-13T01:30:33;103559.75;;;5.88;82.62
71805;BME280;59654;52.216;5.616;2023-02-13T01:31:04;103560.66;;;5.89;82.71
71805;BME280;59654;52.216;5.616;2023-02-13T01:31:35;103560.66;;;5.89;83.25
71805;BME280;59654;52.216;5.616;2023-02-13T01:32:06;103564.19;;;5.89;82.66
71805;BME280;59654;52.216;5.616;2023-02-13T01:32:37;103558.94;;;5.91;82.65
71805;BME280;59654;52.216;5.616;2023-02-13T01:33:10;103558.03;;;5.90;82.92
71805;BME280;59654;52.216;5.616;2023-02-13T01:33:41;103550.97;;;5.89;82.62
71805;BME280;59654;52.216;5.616;2023-02-13T01:34:12;103558.94;;;5.91;82.33
71805;BME280;59654;52.216;5.616;2023-02-13T01:34:44;103551.84;;;5.90;82.98
71805;BME280;59654;52.216;5.616;2023-02-13T01:35:16;103558.03;;;5.90;82.36
71805;BME280;59654;52.216;5.616;2023-02-13T01:35:47;103554.50;;;5.90;82.43
71805;BME280;59654;52.216;5.616;2023-02-13T01:36:17;103555.31;;;5.87;82.72
71805;BME280;59654;52.216;5.616;2023-02-13T01:36:48;103560.59;;;5.87;83.01
71805;BME280;59654;52.216;5.616;2023-02-13T01:37:19;103560.47;;;5.83;82.52
71805;BME280;59654;52.216;5.616;2023-02-13T01:37:50;103562.16;;;5.79;83.35
71805;BME280;59654;52.216;5.616;2023-02-13T01:38:21;103556.81;;;5.77;83.24
71805;BME280;59654;52.216;5.616;2023-02-13T01:38:54;103558.56;;;5.77;83.11
71805;BME280;59654;52.216;5.616;2023-02-13T01:39:27;103555.91;;;5.77;82.77
71805;BME280;59654;52.216;5.616;2023-02-13T01:39:58;103556.81;;;5.77;83.46
71805;BME280;59654;52.216;5.616;2023-02-13T01:40:29;103556.84;;;5.79;83.38
71805;BME280;59654;52.216;5.616;2023-02-13T01:41:01;103555.97;;;5.78;83.27
71805;BME280;59654;52.216;5.616;2023-02-13T01:41:33;103552.47;;;5.80;83.30
71805;BME280;59654;52.216;5.616;2023-02-13T01:42:14;103557.03;;;5.85;82.93
71805;BME280;59654;52.216;5.616;2023-02-13T01:42:46;103555.19;;;5.83;82.72
71805;BME280;59654;52.216;5.616;2023-02-13T01:43:18;103555.31;;;5.87;82.66
71805;BME280;59654;52.216;5.616;2023-02-13T01:43:56;103555.22;;;5.84;82.82
71805;BME280;59654;52.216;5.616;2023-02-13T01:44:54;103550.88;;;5.86;82.90
71805;BME280;59654;52.216;5.616;2023-02-13T01:45:30;103554.47;;;5.88;82.90
71805;BME280;59654;52.216;5.616;2023-02-13T01:46:01;103556.25;;;5.89;83.29
71805;BME280;59654;52.216;5.616;2023-02-13T01:46:38;103553.66;;;5.91;83.13
71805;BME280;59654;52.216;5.616;2023-02-13T01:47:19;103553.69;;;5.92;83.61
71805;BME280;59654;52.216;5.616;2023-02-13T01:48:17;103552.78;;;5.92;82.92
71805;BME280;59654;52.216;5.616;2023-02-13T01:48:53;103558.09;;;5.92;83.13
71805;BME280;59654;52.216;5.616;2023-02-13T01:49:28;103551.94;;;5.93;83.10
71805;BME280;59654;52.216;5.616;2023-02-13T01:50:12;103548.44;;;5.95;82.91
71805;BME280;59654;52.216;5.616;2023-02-13T01:50:56;103547.50;;;5.92;82.64
71805;BME280;59654;52.216;5.616;2023-02-13T01:51:33;103546.63;;;5.93;82.95
71805;BME280;59654;52.216;5.616;2023-02-13T01:52:08;103549.28;;;5.93;83.01
71805;BME280;59654;52.216;5.616;2023-02-13T01:52:46;103555.44;;;5.92;82.52
71805;BME280;59654;52.216;5.616;2023-02-13T01:53:43;103546.56;;;5.90;83.00
71805;BME280;59654;52.216;5.616;2023-02-13T01:54:20;103548.31;;;5.89;83.10
71805;BME280;59654;52.216;5.616;2023-02-13T01:54:55;103546.56;;;5.90;82.69
71805;BME280;59654;52.216;5.616;2023-02-13T01:55:28;103542.16;;;5.90;82.46
71805;BME280;59654;52.216;5.616;2023-02-13T01:56:31;103542.16;;;5.90;82.83
71805;BME280;59654;52.216;5.616;2023-02-13T01:57:13;103553.66;;;5.91;82.46
71805;BME280;59654;52.216;5.616;2023-02-13T01:57:59;103554.53;;;5.91;82.40
71805;BME280;59654;52.216;5.616;2023-02-13T01:58:37;103550.06;;;5.89;82.71
71805;BME280;59654;52.216;5.616;2023-02-13T01:59:16;103541.31;;;5.91;83.30
71805;BME280;59654;52.216;5.616;2023-02-13T01:59:59;103547.41;;;5.89;83.33
71805;BME280;59654;52.216;5.616;2023-02-13T02:00:50;103541.06;;;5.82;83.22
71805;BME280;59654;52.216;5.616;2023-02-13T02:01:23;103543.63;;;5.79;83.52
71805;BME280;59654;52.216;5.616;2023-02-13T02:01:57;103546.22;;;5.77;83.43
71805;BME280;59654;52.216;5.616;2023-02-13T02:02:35;103545.41;;;5.80;83.62
71805;BME280;59654;52.216;5.616;2023-02-13T02:03:14;103544.59;;;5.83;83.46
71805;BME280;59654;52.216;5.616;2023-02-13T02:04:06;103543.56;;;5.76;83.61
71805;BME280;59654;52.216;5.616;2023-02-13T02:04:57;103538.28;;;5.76;83.37
71805;BME280;59654;52.216;5.616;2023-02-13T02:05:29;103534.75;;;5.77;83.23
71805;BME280;59654;52.216;5.616;2023-02-13T02:06:03;103534.69;;;5.74;83.18
71805;BME280;59654;52.216;5.616;2023-02-13T02:06:55;103545.34;;;5.77;83.26
71805;BME280;59654;52.216;5.616;2023-02-13T02:07:32;103543.59;;;5.77;83.07
71805;BME280;59654;52.216;5.616;2023-02-13T02:08:12;103533.00;;;5.77;83.30
71805;BME280;59654;52.216;5.616;2023-02-13T02:08:46;103531.25;;;5.78;82.97
71805;BME280;59654;52.216;5.616;2023-02-13T02:09:28;103534.81;;;5.80;83.04
71805;BME280;59654;52.216;5.616;2023-02-13T02:10:06;103534.00;;;5.83;83.42
71805;BME280;59654;52.216;5.616;2023-02-13T02:10:41;103530.50;;;5.84;83.31
71805;BME280;59654;52.216;5.616;2023-02-13T02:11:31;103537.63;;;5.86;83.14
71805;BME280;59654;52.216;5.616;2023-02-13T02:13:37;103534.06;;;5.84;82.87
71805;BME280;59654;52.216;5.616;2023-02-13T02:14:11;103534.09;;;5.86;83.30
71805;BME280;59654;52.216;5.616;2023-02-13T02:14:44;103535.00;;;5.86;83.48
71805;BME280;59654;52.216;5.616;2023-02-13T02:15:17;103524.44;;;5.88;82.84
71805;BME280;59654;52.216;5.616;2023-02-13T02:15:49;103527.09;;;5.88;82.66
71805;BME280;59654;52.216;5.616;2023-02-13T02:16:20;103526.22;;;5.89;82.92
71805;BME280;59654;52.216;5.616;2023-02-13T02:16:51;103535.06;;;5.89;83.03
71805;BME280;59654;52.216;5.616;2023-02-13T02:17:25;103532.41;;;5.89;83.08
71805;BME280;59654;52.216;5.616;2023-02-13T02:17:57;103533.28;;;5.88;83.17
71805;BME280;59654;52.216;5.616;2023-02-13T02:18:27;103528.88;;;5.89;83.10
71805;BME280;59654;52.216;5.616;2023-02-13T02:19:04;103529.72;;;5.88;83.41
71805;BME280;59654;52.216;5.616;2023-02-13T02:22:40;103534.22;;;5.90;83.19
71805;BME280;59654;52.216;5.616;2023-02-13T02:33:49;103525.41;;;5.91;82.91
71805;BME280;59654;52.216;5.616;2023-02-13T02:39:03;103534.25;;;5.92;83.31
71805;BME280;59654;52.216;5.616;2023-02-13T02:41:41;103530.66;;;5.90;83.06
71805;BME280;59654;52.216;5.616;2023-02-13T02:46:38;103528.97;;;5.92;83.07
71805;BME280;59654;52.216;5.616;2023-02-13T02:47:52;103523.63;;;5.90;82.71
71805;BME280;59654;52.216;5.616;2023-02-13T02:48:56;103519.13;;;5.88;83.05
71805;BME280;59654;52.216;5.616;2023-02-13T02:52:15;103519.88;;;5.82;83.49
71805;BME280;59654;52.216;5.616;2023-02-13T02:54:03;103522.53;;;5.82;83.57
71805;BME280;59654;52.216;5.616;2023-02-13T02:55:17;103522.56;;;5.84;83.25
71805;BME280;59654;52.216;5.616;2023-02-13T02:56:29;103522.56;;;5.84;83.80
71805;BME280;59654;52.216;5.616;2023-02-13T02:57:22;103524.31;;;5.83;83.67
71805;BME280;59654;52.216;5.616;2023-02-13T02:58:27;103518.94;;;5.80;83.47
71805;BME280;59654;52.216;5.616;2023-02-13T02:59:25;103515.31;;;5.75;83.44
71805;BME280;59654;52.216;5.616;2023-02-13T03:00:27;103510.00;;;5.75;83.50
71805;BME280;59654;52.216;5.616;2023-02-13T03:01:22;103512.59;;;5.72;83.75
71805;BME280;59654;52.216;5.616;2023-02-13T03:02:14;103514.28;;;5.70;83.96
71805;BME280;59654;52.216;5.616;2023-02-13T03:03:14;103518.72;;;5.71;84.04
71805;BME280;59654;52.216;5.616;2023-02-13T03:04:16;103520.44;;;5.69;83.96
71805;BME280;59654;52.216;5.616;2023-02-13T03:05:21;103519.50;;;5.67;84.34
71805;BME280;59654;52.216;5.616;2023-02-13T03:06:37;103516.00;;;5.68;84.34
71805;BME280;59654;52.216;5.616;2023-02-13T03:07:18;103518.59;;;5.66;84.22
71805;BME280;59654;52.216;5.616;2023-02-13T03:07:49;103518.59;;;5.66;83.97
71805;BME280;59654;52.216;5.616;2023-02-13T03:08:20;103522.22;;;5.70;84.17
71805;BME280;59654;52.216;5.616;2023-02-13T03:09:19;103522.16;;;5.67;84.13
71805;BME280;59654;52.216;5.616;2023-02-13T03:10:23;103523.16;;;5.72;84.90
71805;BME280;59654;52.216;5.616;2023-02-13T03:11:17;103520.53;;;5.72;84.79
71805;BME280;59654;52.216;5.616;2023-02-13T03:12:08;103519.66;;;5.73;84.47
71805;BME280;59654;52.216;5.616;2023-02-13T03:13:17;103516.13;;;5.72;84.23
71805;BME280;59654;52.216;5.616;2023-02-13T03:14:17;103513.53;;;5.74;84.26
71805;BME280;59654;52.216;5.616;2023-02-13T03:14:50;103517.91;;;5.73;84.26
71805;BME280;59654;52.216;5.616;2023-02-13T03:15:24;103521.41;;;5.72;83.84
71805;BME280;59654;52.216;5.616;2023-02-13T03:15:59;103518.72;;;5.71;84.05
71805;BME280;59654;52.216;5.616;2023-02-13T03:16:50;103515.19;;;5.70;84.29
71805;BME280;59654;52.216;5.616;2023-02-13T03:17:40;103525.72;;;5.69;84.36
71805;BME280;59654;52.216;5.616;2023-02-13T03:18:34;103517.75;;;5.67;84.13
71805;BME280;59654;52.216;5.616;2023-02-13T03:21:09;103518.69;;;5.69;84.22
71805;BME280;59654;52.216;5.616;2023-02-13T03:22:21;103524.88;;;5.70;83.55
71805;BME280;59654;52.216;5.616;2023-02-13T03:23:19;103517.75;;;5.67;83.96
71805;BME280;59654;52.216;5.616;2023-02-13T03:23:59;103523.09;;;5.69;84.09
71805;BME280;59654;52.216;5.616;2023-02-13T03:27:42;103516.22;;;5.75;83.91
71805;BME280;59654;52.216;5.616;2023-02-13T03:28:24;103513.66;;;5.80;83.41
71805;BME280;59654;52.216;5.616;2023-02-13T03:29:52;103520.72;;;5.81;83.58
71805;BME280;59654;52.216;5.616;2023-02-13T03:31:00;103522.53;;;5.82;83.85
71805;BME280;59654;52.216;5.616;2023-02-13T03:34:06;103514.69;;;5.87;83.67
71805;BME280;59654;52.216;5.616;2023-02-13T03:34:51;103515.53;;;5.84;83.59
71805;BME280;59654;52.216;5.616;2023-02-13T03:37:04;103521.72;;;5.85;83.60
71805;BME280;59654;52.216;5.616;2023-02-13T03:38:05;103520.91;;;5.87;83.95
71805;BME280;59654;52.216;5.616;2023-02-13T03:38:47;103510.25;;;5.86;83.92
71805;BME280;59654;52.216;5.616;2023-02-13T03:39:32;103515.56;;;5.86;83.12
71805;BME280;59654;52.216;5.616;2023-02-13T03:40:27;103518.22;;;5.86;83.57
71805;BME280;59654;52.216;5.616;2023-02-13T03:41:15;103517.31;;;5.85;84.02
71805;BME280;59654;52.216;5.616;2023-02-13T03:42:00;103521.75;;;5.86;83.30
71805;BME280;59654;52.216;5.616;2023-02-13T03:42:42;103512.91;;;5.86;84.15
71805;BME280;59654;52.216;5.616;2023-02-13T03:43:18;103518.22;;;5.86;83.80
71805;BME280;59654;52.216;5.616;2023-02-13T03:44:56;103518.22;;;5.86;83.48
71805;BME280;59654;52.216;5.616;2023-02-13T03:45:50;103518.22;;;5.86;83.35
71805;BME280;59654;52.216;5.616;2023-02-13T03:46:32;103520.81;;;5.84;83.37
71805;BME280;59654;52.216;5.616;2023-02-13T03:47:09;103523.47;;;5.84;83.57
71805;BME280;59654;52.216;5.616;2023-02-13T03:47:44;103519.03;;;5.83;83.66
71805;BME280;59654;52.216;5.616;2023-02-13T03:48:24;103527.00;;;5.85;83.61
71805;BME280;59654;52.216;5.616;2023-02-13T03:49:22;103525.28;;;5.87;83.38
71805;BME280;59654;52.216;5.616;2023-02-13T03:50:17;103526.19;;;5.87;83.69
71805;BME280;59654;52.216;5.616;2023-02-13T03:50:48;103525.28;;;5.87;83.82
71805;BME280;59654;52.216;5.616;2023-02-13T03:51:28;103526.16;;;5.86;83.80
71805;BME280;59654;52.216;5.616;2023-02-13T03:53:20;103520.81;;;5.84;83.62
71805;BME280;59654;52.216;5.616;2023-02-13T03:53:56;103522.56;;;5.84;83.30
71805;BME280;59654;52.216;5.616;2023-02-13T03:54:54;103522.56;;;5.84;83.39
71805;BME280;59654;52.216;5.616;2023-02-13T03:55:47;103526.16;;;5.86;84.19